Pagrindinis puslapis
METAR-TAF:

METAR-TAF

Oro uostai :

Osijekas, Kroatija

platuma: 45-27N, ilguma: 018-48E, Aukštis: 88 m

Dabartinis oras

Ataskaita buvo paskelbta 19 minutes, ne 18:00 UTC
Vėjas 12 kt iš Vakarų/Šiaurės Vakarų
Temperatūra 16°C
Drėgmė 45%
Slėgis 1016 hPa
Matomumas 10 km arba daugiau
nėra debesų žemiau 1500 m ir nėra kamuolinių lietaus debesų

METAR: LDOS 301800Z 30012KT CAVOK 16/04 Q1016

Laikas: 20:19 (18:19 UTC)

Prognozė

Ataskaita buvo paskelbta 54 minutes, ne 17:25 UTC
Prognozė galioja nuo 30 metu 18 UTC su 31 metu 18 UTC
Vėjas 12 kt iš Šiaurės Vakarų
Matomumas 10 km arba daugiau
nėra debesų žemiau 1500 m ir nėra kamuolinių lietaus debesų
Tikimybė 30% :
Laikinai
nuo 31 metu 10 UTC su 31 metu 12 UTC
Mažai debesys ne aukštis 5000 ft, aukštai iškilę kamuoliniai debesys.
Tikimybė 40% :
Laikinai
nuo 31 metu 12 UTC su 31 metu 16 UTC
Vėjas 15 kt iš Šiaurės Vakarų su gūsio iki 25 kt

TAF: LDOS 301725Z 3018/3118 32012KT CAVOK TX20/3111Z TN12/3104Z PROB30 TEMPO 3110/3112 FEW050TCU PROB40 TEMPO 3112/3116 32015G25KT

Orai ataskaitas ir orų prognozės (METAR, TAF).

turimą stotys yra geltonos ir raudonos taškus žemėlapyje.

Perkelti pele per norėdami pamatyti stoties vardą.

Tada spustelėkite, norėdami matyti oro stebėjimo ir prognozės.

Norėdami pakeisti žemėlapį: spustelėkite ant žalios mygtukų su juodo kryžiaus žemyn,; žalią mygtuką su brūkšneliu, jei norite nutolinti; arba žalių rodyklių gretimoms žemėlapius.


METAR-TAF: